createdAt,value
2018-07-27T00:01:43.561Z,66.18
2018-07-27T00:04:11.808Z,66.30
2018-07-27T00:06:41.845Z,66.62
2018-07-27T00:09:11.865Z,65.95
2018-07-27T00:11:40.254Z,67.39
2018-07-27T00:14:08.464Z,68.08
2018-07-27T00:16:36.684Z,68.24
2018-07-27T00:19:05.395Z,67.93
2018-07-27T00:21:33.843Z,65.95
2018-07-27T00:24:02.086Z,66.15
2018-07-27T00:26:30.599Z,66.66
2018-07-27T00:28:58.978Z,68.00
2018-07-27T00:31:27.317Z,68.51
2018-07-27T00:33:56.143Z,67.72
2018-07-27T00:36:25.186Z,67.57
2018-07-27T00:38:53.454Z,67.54
2018-07-27T00:41:21.713Z,68.67
2018-07-27T00:43:50.041Z,69.01
2018-07-27T00:46:18.264Z,69.63
2018-07-27T00:48:47.564Z,70.43
2018-07-27T00:51:15.821Z,69.95
2018-07-27T00:53:44.989Z,69.17
2018-07-27T00:56:13.216Z,69.75
2018-07-27T00:58:41.478Z,69.75
2018-07-27T01:01:09.765Z,69.95
2018-07-27T01:03:38.086Z,69.24
2018-07-27T01:06:08.105Z,69.80
2018-07-27T01:08:36.393Z,69.58
2018-07-27T01:11:04.937Z,69.94
2018-07-27T01:13:33.241Z,70.21
2018-07-27T01:16:01.565Z,70.53
2018-07-27T01:18:30.642Z,70.28
2018-07-27T01:20:58.869Z,69.88
2018-07-27T01:23:33.729Z,70.58
2018-07-27T01:26:02.831Z,70.90
2018-07-27T01:28:32.727Z,70.49
2018-07-27T01:31:01.004Z,70.36
2018-07-27T01:33:29.261Z,69.83
2018-07-27T01:35:57.561Z,70.25
2018-07-27T01:38:25.801Z,70.81
2018-07-27T01:40:54.097Z,70.83
2018-07-27T01:43:23.130Z,71.46
2018-07-27T01:45:51.494Z,70.82
2018-07-27T01:48:20.544Z,70.63
2018-07-27T01:50:48.888Z,71.46
2018-07-27T01:53:18.123Z,71.06
2018-07-27T01:55:47.468Z,70.28
2018-07-27T01:58:15.706Z,70.63
2018-07-27T02:00:43.945Z,71.59
2018-07-27T02:03:12.240Z,71.09
2018-07-27T02:05:40.477Z,71.52
2018-07-27T02:08:08.817Z,72.01
2018-07-27T02:10:37.080Z,72.53
2018-07-27T02:13:05.360Z,72.90
2018-07-27T02:15:36.106Z,71.71
2018-07-27T02:18:04.378Z,71.45
2018-07-27T02:20:32.773Z,71.02
2018-07-27T02:23:01.017Z,71.07
2018-07-27T02:25:29.224Z,70.58
2018-07-27T02:27:57.513Z,71.37
2018-07-27T02:30:25.815Z,72.67
2018-07-27T02:32:54.085Z,73.35
2018-07-27T02:35:22.628Z,73.20
2018-07-27T02:37:50.914Z,72.11
2018-07-27T02:40:19.231Z,72.52
2018-07-27T02:42:48.738Z,72.93
2018-07-27T02:45:16.957Z,73.71
2018-07-27T02:47:48.850Z,73.28
2018-07-27T02:50:17.613Z,73.61
2018-07-27T02:52:46.125Z,72.87
2018-07-27T02:55:15.054Z,73.77
2018-07-27T02:57:43.293Z,74.98
2018-07-27T03:00:11.512Z,72.85
2018-07-27T03:02:39.784Z,73.66
2018-07-27T03:05:09.018Z,73.04
2018-07-27T03:07:37.490Z,74.96
2018-07-27T03:10:05.804Z,73.65
2018-07-27T03:12:34.068Z,73.36
2018-07-27T03:15:02.965Z,73.94
2018-07-27T03:17:31.224Z,73.44
2018-07-27T03:19:59.438Z,72.80
2018-07-27T03:22:28.517Z,72.37
2018-07-27T03:24:56.773Z,73.65
2018-07-27T03:27:25.730Z,74.21
2018-07-27T03:29:54.000Z,74.70
2018-07-27T03:32:22.839Z,75.21
2018-07-27T03:34:51.125Z,75.51
2018-07-27T03:37:19.375Z,75.67
2018-07-27T03:39:47.690Z,75.04
2018-07-27T03:42:16.038Z,74.30
2018-07-27T03:44:44.323Z,74.31
2018-07-27T03:47:12.588Z,74.68
2018-07-27T03:49:40.907Z,75.40
2018-07-27T03:52:09.222Z,75.13
2018-07-27T03:54:37.512Z,74.59
2018-07-27T03:57:05.826Z,74.42
2018-07-27T03:59:34.118Z,74.04
2018-07-27T04:02:02.488Z,73.01
2018-07-27T04:04:30.806Z,72.95
2018-07-27T04:06:59.223Z,72.49
2018-07-27T04:09:27.526Z,72.79
2018-07-27T04:11:55.798Z,72.85
2018-07-27T04:14:24.114Z,73.54
2018-07-27T04:16:52.666Z,74.51
2018-07-27T04:19:21.027Z,73.46
2018-07-27T04:21:49.286Z,73.46
2018-07-27T04:24:17.583Z,73.22
2018-07-27T04:26:45.876Z,73.67
2018-07-27T04:29:14.202Z,73.98
2018-07-27T04:31:42.487Z,73.19
2018-07-27T04:34:10.784Z,73.58
2018-07-27T04:36:39.083Z,72.05
2018-07-27T04:39:09.183Z,72.43
2018-07-27T04:50:39.824Z,70.44
2018-07-27T04:53:08.118Z,70.67
2018-07-27T04:55:36.381Z,70.07
2018-07-27T04:58:05.037Z,68.98
2018-07-27T05:00:33.391Z,69.37
2018-07-27T05:03:01.685Z,69.72
2018-07-27T05:05:30.081Z,69.80
2018-07-27T05:07:58.368Z,69.42
2018-07-27T05:10:32.165Z,68.83
2018-07-27T05:13:00.562Z,68.25
2018-07-27T05:15:28.863Z,69.27
2018-07-27T05:17:57.126Z,68.21
2018-07-27T05:20:25.447Z,67.66
2018-07-27T05:22:53.724Z,66.61
2018-07-27T05:25:22.055Z,65.72
2018-07-27T05:27:50.406Z,66.49
2018-07-27T05:30:18.731Z,65.45
2018-07-27T05:32:47.217Z,65.94
2018-07-27T05:35:15.567Z,66.41
2018-07-27T05:37:43.933Z,65.72
2018-07-27T05:40:12.224Z,65.95
2018-07-27T05:42:44.199Z,64.60
2018-07-27T05:45:13.044Z,64.24
2018-07-27T05:47:41.331Z,63.53
2018-07-27T05:50:09.790Z,62.33
2018-07-27T05:52:38.155Z,60.13
2018-07-27T05:55:06.632Z,60.72
2018-07-27T05:57:35.126Z,58.11
2018-07-27T06:00:03.464Z,56.87
2018-07-27T06:02:32.031Z,55.69
2018-07-27T06:05:01.509Z,55.66
2018-07-27T06:07:30.025Z,54.69
2018-07-27T06:09:58.376Z,55.71
2018-07-27T06:12:26.773Z,56.20
2018-07-27T06:14:55.294Z,55.18
2018-07-27T06:17:23.823Z,54.65
2018-07-27T06:19:52.398Z,54.92
2018-07-27T06:22:20.893Z,54.03
2018-07-27T06:28:26.147Z,54.34
2018-07-27T06:30:54.564Z,53.94
2018-07-27T06:33:23.287Z,54.46
2018-07-27T06:35:51.620Z,53.18
2018-07-27T06:38:19.951Z,52.71
2018-07-27T06:40:48.285Z,51.91
2018-07-27T06:43:16.616Z,52.30
2018-07-27T06:45:44.908Z,52.05
2018-07-27T06:48:18.878Z,52.38
2018-07-27T06:50:48.588Z,51.15
2018-07-27T06:53:16.898Z,51.21
2018-07-27T06:55:45.766Z,50.52
2018-07-27T06:58:14.462Z,51.45
2018-07-27T07:00:42.796Z,51.87
2018-07-27T07:03:11.281Z,51.32
2018-07-27T07:05:39.575Z,50.81
2018-07-27T07:08:07.839Z,51.48
2018-07-27T07:10:36.156Z,49.94
2018-07-27T07:13:04.425Z,50.34
2018-07-27T07:15:32.812Z,50.06
2018-07-27T07:18:01.100Z,51.61
2018-07-27T07:20:29.409Z,49.90
2018-07-27T07:22:57.761Z,50.54
2018-07-27T07:25:26.186Z,49.58
2018-07-27T07:27:54.433Z,50.24
2018-07-27T07:30:22.737Z,50.13
2018-07-27T07:32:51.021Z,49.59
2018-07-27T07:35:19.323Z,49.78
2018-07-27T07:37:47.600Z,49.07
2018-07-27T07:40:15.902Z,48.16
2018-07-27T07:42:44.220Z,49.72
2018-07-27T07:45:12.598Z,48.61
2018-07-27T07:47:40.865Z,48.24
2018-07-27T07:50:09.158Z,47.80
2018-07-27T07:52:37.442Z,47.59
2018-07-27T07:55:05.759Z,47.88
2018-07-27T07:57:34.028Z,48.38
2018-07-27T08:00:02.315Z,47.45
2018-07-27T08:02:30.616Z,47.13
2018-07-27T08:04:58.898Z,46.73
2018-07-27T08:07:27.203Z,47.59
2018-07-27T08:09:55.511Z,46.59
2018-07-27T08:12:23.805Z,46.39
2018-07-27T08:14:52.118Z,46.64
2018-07-27T08:17:20.395Z,46.35
2018-07-27T08:19:48.684Z,46.32
2018-07-27T08:22:17.006Z,46.14
2018-07-27T08:24:45.306Z,45.67
2018-07-27T08:27:13.567Z,45.47
2018-07-27T08:29:44.836Z,46.61
2018-07-27T08:32:13.371Z,47.04
2018-07-27T08:34:41.879Z,45.51
2018-07-27T08:37:10.468Z,45.30
2018-07-27T08:39:40.892Z,44.77
2018-07-27T08:42:09.223Z,45.55
2018-07-27T08:44:39.573Z,44.37
2018-07-27T08:47:07.971Z,44.28
2018-07-27T08:49:36.289Z,43.96
2018-07-27T08:52:04.663Z,43.15
2018-07-27T08:54:32.995Z,42.60
2018-07-27T08:57:01.335Z,42.90
2018-07-27T08:59:29.640Z,42.52
2018-07-27T09:01:57.984Z,42.43
2018-07-27T09:04:26.284Z,42.45
2018-07-27T09:06:54.633Z,40.54
2018-07-27T09:09:22.915Z,41.39
2018-07-27T09:11:51.194Z,41.71
2018-07-27T09:14:19.459Z,39.45
2018-07-27T09:16:47.779Z,39.98
2018-07-27T09:19:16.069Z,38.97
2018-07-27T09:21:44.644Z,40.11
2018-07-27T09:24:13.010Z,41.41
2018-07-27T09:26:41.302Z,40.99
2018-07-27T09:29:09.551Z,40.55
2018-07-27T09:31:38.088Z,39.02
2018-07-27T09:34:06.413Z,40.34
2018-07-27T09:36:34.742Z,37.63
2018-07-27T09:39:03.059Z,37.62
2018-07-27T09:41:31.373Z,38.16
2018-07-27T09:43:59.703Z,38.39
2018-07-27T09:46:28.080Z,38.95
2018-07-27T09:48:56.385Z,38.11
2018-07-27T09:51:25.374Z,38.81
2018-07-27T09:53:53.746Z,37.54
2018-07-27T09:56:22.104Z,37.41
2018-07-27T09:58:50.410Z,38.87
2018-07-27T10:01:27.440Z,38.53
2018-07-27T10:03:56.050Z,37.10
2018-07-27T10:06:24.370Z,36.57
2018-07-27T10:08:52.910Z,36.28
2018-07-27T10:11:21.712Z,36.55
2018-07-27T10:13:50.073Z,36.65
2018-07-27T10:16:18.386Z,36.55
2018-07-27T10:18:47.156Z,37.26
2018-07-27T10:21:15.517Z,36.33
2018-07-27T10:23:43.924Z,36.52
2018-07-27T10:26:12.941Z,35.56
2018-07-27T10:28:41.306Z,35.80
2018-07-27T10:31:09.639Z,37.28
2018-07-27T10:33:37.957Z,36.58
2018-07-27T10:36:06.445Z,34.98
2018-07-27T10:38:34.806Z,35.78
2018-07-27T10:41:03.143Z,36.27
2018-07-27T10:43:31.459Z,35.63
2018-07-27T10:45:59.769Z,35.80
2018-07-27T10:48:28.137Z,34.97
2018-07-27T10:50:56.491Z,35.15
2018-07-27T10:53:24.798Z,37.09
2018-07-27T10:55:53.135Z,35.08
2018-07-27T10:58:21.424Z,34.84
2018-07-27T11:00:49.762Z,35.13
2018-07-27T11:03:18.066Z,34.65
2018-07-27T11:05:46.361Z,34.04
2018-07-27T11:08:14.695Z,35.43
2018-07-27T11:10:43.106Z,35.78
2018-07-27T11:13:11.488Z,36.31
2018-07-27T11:15:39.797Z,35.24
2018-07-27T11:18:08.106Z,33.60
2018-07-27T11:20:36.399Z,33.43
2018-07-27T11:23:04.727Z,33.93
2018-07-27T11:25:33.265Z,34.74
2018-07-27T11:28:01.550Z,34.84
2018-07-27T11:30:30.329Z,34.10
2018-07-27T11:32:58.703Z,32.67
2018-07-27T11:35:26.985Z,32.84
2018-07-27T11:37:55.291Z,33.50
2018-07-27T11:40:23.592Z,33.71
2018-07-27T11:42:52.153Z,31.98
2018-07-27T11:45:20.469Z,32.22
2018-07-27T11:47:49.055Z,33.00
2018-07-27T11:50:17.335Z,32.27
2018-07-27T11:52:45.648Z,32.35
2018-07-27T11:55:13.947Z,32.12
2018-07-27T11:57:42.447Z,32.61
2018-07-27T12:00:10.727Z,31.42
2018-07-27T12:02:39.038Z,30.86
2018-07-27T12:05:07.532Z,31.80
2018-07-27T12:07:36.307Z,31.09
2018-07-27T12:10:04.851Z,31.55
2018-07-27T12:12:33.330Z,31.37
2018-07-27T12:15:01.962Z,30.70
2018-07-27T12:17:30.102Z,31.62
2018-07-27T12:19:58.382Z,30.56
2018-07-27T12:22:26.806Z,29.15
2018-07-27T12:24:55.274Z,29.82
2018-07-27T12:27:23.627Z,27.89
2018-07-27T12:29:51.935Z,29.33
2018-07-27T12:32:20.421Z,28.79
2018-07-27T12:34:48.720Z,29.55
2018-07-27T12:37:17.043Z,30.91
2018-07-27T12:39:45.330Z,29.87
2018-07-27T12:42:13.650Z,31.27
2018-07-27T12:44:42.156Z,30.61
2018-07-27T12:47:10.521Z,32.42
2018-07-27T12:49:38.805Z,30.62
2018-07-27T12:52:07.115Z,31.17
2018-07-27T12:54:35.393Z,31.38
2018-07-27T12:57:03.705Z,30.89
2018-07-27T12:59:32.171Z,30.05
2018-07-27T13:02:00.493Z,31.37
2018-07-27T13:04:28.796Z,31.31
2018-07-27T13:06:57.098Z,30.54
2018-07-27T13:09:25.579Z,30.55
2018-07-27T13:11:54.019Z,32.28
2018-07-27T13:14:22.574Z,30.81
2018-07-27T13:16:50.860Z,32.08
2018-07-27T13:19:19.193Z,30.87
2018-07-27T13:21:47.518Z,30.30
2018-07-27T13:24:15.953Z,31.04
2018-07-27T13:26:44.270Z,29.54
2018-07-27T13:29:12.852Z,29.37
2018-07-27T13:34:39.238Z,28.42
2018-07-27T13:37:08.086Z,29.10
2018-07-27T13:39:36.966Z,28.34
2018-07-27T13:42:06.141Z,28.80
2018-07-27T13:44:36.223Z,29.50
2018-07-27T13:47:05.332Z,28.68
2018-07-27T13:49:33.670Z,28.31
2018-07-27T13:52:02.203Z,29.11
2018-07-27T13:54:31.612Z,29.68
2018-07-27T13:56:59.938Z,28.92
2018-07-27T13:59:28.511Z,28.90
2018-07-27T14:01:56.922Z,30.03
2018-07-27T14:04:25.563Z,27.93
2018-07-27T14:06:55.147Z,27.77
2018-07-27T14:09:23.588Z,28.45
2018-07-27T14:11:52.050Z,29.78
2018-07-27T14:14:20.473Z,29.19
2018-07-27T14:16:48.823Z,28.77
2018-07-27T14:19:18.133Z,28.27
2018-07-27T14:21:46.485Z,29.38
2018-07-27T14:24:15.463Z,29.32
2018-07-27T14:26:43.958Z,28.95
2018-07-27T14:29:12.385Z,29.96
2018-07-27T14:31:40.715Z,29.53
2018-07-27T14:34:09.314Z,27.86
2018-07-27T14:36:37.991Z,28.80
2018-07-27T14:39:12.250Z,29.21
2018-07-27T14:41:41.043Z,28.74
2018-07-27T14:44:09.732Z,27.94
2018-07-27T14:46:38.444Z,26.36
2018-07-27T14:49:13.504Z,26.92
2018-07-27T14:51:42.439Z,28.39
2018-07-27T14:54:12.215Z,27.74
2018-07-27T14:56:41.433Z,28.00
2018-07-27T14:59:10.352Z,28.38
2018-07-27T15:01:39.386Z,28.51
2018-07-27T15:04:08.166Z,26.95
2018-07-27T15:06:36.487Z,27.82
2018-07-27T15:09:08.086Z,27.16
2018-07-27T15:11:36.591Z,27.10
2018-07-27T15:14:05.186Z,27.69
2018-07-27T15:16:33.711Z,28.23
2018-07-27T15:19:02.329Z,29.45
2018-07-27T15:21:30.805Z,29.06
2018-07-27T15:23:59.396Z,28.97
2018-07-27T15:26:27.817Z,28.65
2018-07-27T15:28:56.343Z,29.66
2018-07-27T15:31:24.864Z,29.17
2018-07-27T15:33:53.325Z,29.20
2018-07-27T15:36:21.613Z,28.50
2018-07-27T15:38:49.945Z,29.79
2018-07-27T15:41:18.428Z,29.55
2018-07-27T15:43:46.879Z,29.81
2018-07-27T15:46:15.363Z,28.97
2018-07-27T15:48:43.842Z,30.69
2018-07-27T15:51:12.421Z,30.69
2018-07-27T15:53:40.951Z,30.92
2018-07-27T15:56:09.501Z,32.02
2018-07-27T15:58:37.812Z,31.23
2018-07-27T16:01:06.324Z,31.85
2018-07-27T16:03:34.851Z,31.58
2018-07-27T16:06:03.355Z,30.67
2018-07-27T16:08:32.288Z,31.61
2018-07-27T16:11:00.659Z,31.83
2018-07-27T16:15:49.162Z,32.76
2018-07-27T16:18:17.490Z,32.97
2018-07-27T16:20:46.136Z,31.37
2018-07-27T16:23:14.993Z,33.86
2018-07-27T16:25:43.326Z,35.01
2018-07-27T16:28:11.761Z,35.19
2018-07-27T16:30:40.362Z,35.91
2018-07-27T16:33:08.764Z,36.21
2018-07-27T16:35:37.256Z,36.15
2018-07-27T16:46:52.787Z,35.46
2018-07-27T16:53:01.012Z,36.00
2018-07-27T16:55:52.374Z,37.02
2018-07-27T16:58:59.932Z,35.79
2018-07-27T17:01:29.564Z,35.66
2018-07-27T17:03:57.914Z,34.11
2018-07-27T17:06:26.892Z,35.11
2018-07-27T17:08:55.986Z,34.34
2018-07-27T17:11:24.824Z,34.76
2018-07-27T17:13:53.689Z,33.67
2018-07-27T17:16:22.654Z,34.84
2018-07-27T17:18:51.524Z,35.23
2018-07-27T17:21:20.220Z,34.80
2018-07-27T17:23:49.107Z,36.07
2018-07-27T17:26:17.910Z,35.37
2018-07-27T17:28:46.965Z,36.44
2018-07-27T17:31:26.010Z,37.80
2018-07-27T17:33:55.011Z,37.83
2018-07-27T17:36:23.652Z,37.58
2018-07-27T17:38:52.293Z,37.70
2018-07-27T17:41:21.003Z,37.31
2018-07-27T17:43:49.648Z,36.97
2018-07-27T17:46:18.391Z,38.28
2018-07-27T17:48:46.983Z,37.45
2018-07-27T17:51:15.477Z,38.86
2018-07-27T17:54:03.874Z,39.40
2018-07-27T17:56:50.887Z,40.34
2018-07-27T17:59:38.153Z,40.33
2018-07-27T18:08:14.192Z,42.65
2018-07-27T18:13:57.677Z,42.20
2018-07-27T18:16:53.245Z,42.31
2018-07-27T18:22:53.616Z,42.83
2018-07-27T18:25:34.559Z,43.54
2018-07-27T18:28:27.923Z,42.96
2018-07-27T18:31:13.447Z,44.10
2018-07-27T18:33:42.057Z,44.59
2018-07-27T18:36:10.739Z,44.52
2018-07-27T18:38:53.612Z,44.66
2018-07-27T18:41:49.076Z,45.11
2018-07-27T18:44:18.716Z,45.14
2018-07-27T18:46:47.021Z,45.05
2018-07-27T18:49:15.374Z,44.60
2018-07-27T18:51:43.963Z,45.43
2018-07-27T18:54:12.254Z,45.73
2018-07-27T18:56:40.683Z,46.06
2018-07-27T18:59:09.042Z,45.68
2018-07-27T19:01:37.495Z,47.00
2018-07-27T19:04:05.875Z,49.81
2018-07-27T19:06:34.185Z,50.80
2018-07-27T19:09:02.538Z,52.02
2018-07-27T19:11:30.842Z,52.08
2018-07-27T19:13:59.155Z,52.56
2018-07-27T19:16:27.585Z,52.77
2018-07-27T19:18:55.906Z,52.40
2018-07-27T19:21:24.344Z,53.52
2018-07-27T19:23:52.687Z,53.43
2018-07-27T19:26:22.116Z,52.64
2018-07-27T19:28:50.545Z,53.89
2018-07-27T19:31:18.973Z,54.44
2018-07-27T19:33:47.332Z,54.85
2018-07-27T19:36:15.752Z,54.94
2018-07-27T19:38:44.118Z,55.61
2018-07-27T19:41:12.502Z,55.74
2018-07-27T19:44:03.492Z,55.30
2018-07-27T19:46:31.930Z,54.61
2018-07-27T19:49:01.600Z,54.25
2018-07-27T19:51:30.003Z,54.98
2018-07-27T19:53:58.304Z,55.84
2018-07-27T19:56:26.866Z,56.47
2018-07-27T19:58:55.298Z,56.76
2018-07-27T20:01:23.627Z,57.91
2018-07-27T20:03:52.539Z,57.82
2018-07-27T20:06:21.135Z,57.30
2018-07-27T20:12:08.170Z,57.71
2018-07-27T20:14:36.917Z,58.03
2018-07-27T20:17:05.327Z,57.86
2018-07-27T20:19:33.616Z,58.69
2018-07-27T20:22:02.275Z,59.86
2018-07-27T20:24:31.253Z,58.86
2018-07-27T20:26:59.653Z,58.18
2018-07-27T20:29:28.130Z,59.51
2018-07-27T20:31:56.686Z,58.77
2018-07-27T20:34:25.065Z,59.22
2018-07-27T20:36:53.586Z,60.50
2018-07-27T20:39:23.598Z,61.15
2018-07-27T20:41:52.386Z,61.53
2018-07-27T20:44:20.782Z,63.21
2018-07-27T20:46:49.101Z,63.39
2018-07-27T20:49:17.525Z,63.46
2018-07-27T20:51:45.840Z,62.04
2018-07-27T20:54:14.215Z,61.86
2018-07-27T20:56:42.570Z,62.79
2018-07-27T20:59:10.912Z,62.97
2018-07-27T21:01:39.394Z,62.05
2018-07-27T21:04:07.735Z,63.35
2018-07-27T21:06:36.070Z,63.30
2018-07-27T21:09:06.320Z,63.02
2018-07-27T21:11:34.607Z,62.19
2018-07-27T21:14:02.955Z,61.18
2018-07-27T21:16:31.438Z,61.33
2018-07-27T21:18:59.783Z,62.68
2018-07-27T21:21:28.297Z,63.37
2018-07-27T21:23:56.582Z,64.06
2018-07-27T21:26:24.924Z,63.50
2018-07-27T21:28:53.278Z,63.87
2018-07-27T21:31:21.591Z,64.82
2018-07-27T21:33:49.972Z,63.51
2018-07-27T21:36:18.411Z,63.54
2018-07-27T21:38:46.833Z,62.94
2018-07-27T21:41:15.131Z,62.37
2018-07-27T21:43:43.537Z,62.99
2018-07-27T21:46:11.851Z,62.16
2018-07-27T21:48:41.002Z,64.12
2018-07-27T21:51:09.318Z,64.28
2018-07-27T21:53:37.599Z,65.59
2018-07-27T21:56:06.351Z,66.17
2018-07-27T21:58:34.686Z,66.93
2018-07-27T22:01:02.991Z,66.77
2018-07-27T22:03:31.380Z,65.96
2018-07-27T22:05:59.655Z,65.14
2018-07-27T22:08:28.102Z,64.57
2018-07-27T22:10:56.389Z,65.39
2018-07-27T22:13:24.867Z,66.02
2018-07-27T22:15:53.272Z,68.35
2018-07-27T22:18:21.563Z,69.52
2018-07-27T22:20:49.980Z,67.57
2018-07-27T22:23:18.272Z,66.70
2018-07-27T22:25:46.550Z,67.97
2018-07-27T22:28:14.884Z,68.05
2018-07-27T22:30:43.199Z,69.20
2018-07-27T22:33:11.501Z,68.24
2018-07-27T22:35:39.775Z,67.42
2018-07-27T22:38:08.063Z,66.33
2018-07-27T22:40:36.364Z,66.83
2018-07-27T22:43:05.773Z,66.26
2018-07-27T22:45:34.075Z,68.76
2018-07-27T22:48:04.872Z,67.30
2018-07-27T22:50:33.132Z,69.12
2018-07-27T22:53:01.458Z,69.05
2018-07-27T22:55:29.750Z,70.05
2018-07-27T22:57:58.058Z,69.93
2018-07-27T23:00:26.331Z,70.17
2018-07-27T23:02:54.640Z,69.53
2018-07-27T23:05:22.980Z,69.16
2018-07-27T23:07:51.295Z,69.05
2018-07-27T23:10:19.574Z,69.85
2018-07-27T23:12:47.895Z,67.93
2018-07-27T23:15:16.188Z,67.97
2018-07-27T23:17:44.483Z,68.04
2018-07-27T23:20:14.691Z,68.09
2018-07-27T23:22:43.824Z,68.15
2018-07-27T23:25:12.139Z,70.07
2018-07-27T23:27:40.429Z,71.33
2018-07-27T23:30:10.864Z,71.59
2018-07-27T23:32:39.149Z,72.34
2018-07-27T23:35:07.543Z,72.19
2018-07-27T23:37:35.839Z,70.89
2018-07-27T23:40:04.728Z,70.64
2018-07-27T23:42:33.042Z,70.98
2018-07-27T23:45:01.330Z,70.56
2018-07-27T23:47:29.618Z,71.98
2018-07-27T23:49:57.900Z,73.51
2018-07-27T23:52:26.318Z,73.21
2018-07-27T23:54:54.618Z,71.93
2018-07-27T23:57:22.904Z,71.21
2018-07-27T23:59:51.228Z,71.46
